This is the latest recevied weather packets stored in our database for station/object K7TSD. If no packets are shown the sender has not sent any weather packets the latest 10 day(s).
| Time | Temp. | Humidity | Pressure | Rain* | Wind** | Luminosity | Snow |
|---|---|---|---|---|---|---|---|
| 1777423084 | 6.67° C | 62% | 1015.3 hPa | 0 mm | - | 134 W/m² | - |
| 1777422780 | 7.78° C | 61% | 1015.3 hPa | 0 mm | - | 167 W/m² | - |
| 1777422475 | 6.67° C | 60% | 1015.1 hPa | 0 mm | - | 179 W/m² | - |
| 1777422170 | 6.67° C | 62% | 1014.6 hPa | 0 mm | - | 81 W/m² | - |
| 1777421870 | 6.67° C | 62% | 1015 hPa | 0 mm | - | 68 W/m² | - |
| 1777421565 | 6.67° C | 60% | 1014.6 hPa | 0 mm | - | 71 W/m² | - |
| 1777421261 | 6.67° C | 58% | 1014.6 hPa | 0 mm | - | 217 W/m² | - |
| 1777420958 | 7.22° C | 60% | 1014.6 hPa | 0 mm | - | 94 W/m² | - |
| 1777420655 | 7.78° C | 58% | 1015 hPa | 0 mm | - | 245 W/m² | - |
| 1777420351 | 7.78° C | 58% | 1014.9 hPa | 0 mm | - | 300 W/m² | - |
| 1777420046 | 7.22° C | 59% | 1015.1 hPa | 0 mm | - | 356 W/m² | - |
| 1777419744 | 6.67° C | 61% | 1014.9 hPa | 0 mm | - | 92 W/m² | - |
| 1777419441 | 7.22° C | 60% | 1014.7 hPa | 0 mm | - | 95 W/m² | - |
| 1777419140 | 7.78° C | 59% | 1014.6 hPa | 0 mm | - | 246 W/m² | - |
| 1777418835 | 7.22° C | 61% | 1014.9 hPa | 0 mm | - | 142 W/m² | - |
| 1777418532 | 7.22° C | 59% | 1014.4 hPa | 0 mm | - | 170 W/m² | - |
| 1777418229 | 7.22° C | 57% | 1014.6 hPa | 0 mm | - | 281 W/m² | - |
| 1777417929 | 7.78° C | 57% | 1014.6 hPa | 0 mm | - | 407 W/m² | - |
| 1777417626 | 7.78° C | 57% | 1014 hPa | 0 mm | - | 457 W/m² | - |
| 1777417321 | 7.22° C | 57% | 1013.9 hPa | 0 mm | - | 323 W/m² | - |
| 1777417018 | 7.78° C | 57% | 1014.2 hPa | 0 mm | - | 476 W/m² | - |
| 1777416713 | 8.33° C | 57% | 1014.3 hPa | 0 mm | - | 489 W/m² | - |
| 1777416409 | 7.78° C | 58% | 1014 hPa | 0 mm | - | 567 W/m² | - |
| 1777416103 | 7.78° C | 64% | 1014.2 hPa | 0 mm | - | 225 W/m² | - |
| 1777415798 | 8.33° C | 66% | 1013.9 hPa | 0 mm | - | 406 W/m² | - |
* Rain latest hour (hover to see other rain measurements)
** Current wind speed in m/s (hover to see current wind gust speed)